createdAt,value
2022-08-07T00:00:18.780Z,3.35
2022-08-07T00:03:04.466Z,2.13
2022-08-07T00:05:32.967Z,2.88
2022-08-07T00:08:04.075Z,2.40
2022-08-07T00:10:31.716Z,1.92
2022-08-07T00:13:03.332Z,2.58
2022-08-07T00:15:46.809Z,1.83
2022-08-07T00:18:23.147Z,1.88
2022-08-07T00:20:54.310Z,1.40
2022-08-07T00:23:22.054Z,1.73
2022-08-07T00:25:58.922Z,1.80
2022-08-07T00:28:31.618Z,1.70
2022-08-07T00:31:12.785Z,2.00
2022-08-07T00:33:47.372Z,1.85
2022-08-07T00:36:15.095Z,2.15
2022-08-07T00:38:44.365Z,2.80
2022-08-07T00:41:14.772Z,2.60
2022-08-07T00:44:00.726Z,3.05
2022-08-07T00:46:30.955Z,3.55
2022-08-07T00:49:03.230Z,3.78
2022-08-07T00:51:57.211Z,5.03
2022-08-07T00:54:19.810Z,4.68
2022-08-07T00:56:49.794Z,4.35
2022-08-07T00:59:18.086Z,5.15
2022-08-07T01:01:49.302Z,4.68
2022-08-07T01:04:21.791Z,4.43
2022-08-07T01:06:51.906Z,3.47
2022-08-07T01:10:05.348Z,2.92
2022-08-07T01:12:27.865Z,2.33
2022-08-07T01:15:03.716Z,2.35
2022-08-07T01:17:31.897Z,2.93
2022-08-07T01:20:03.655Z,2.92
2022-08-07T01:22:32.135Z,3.00
2022-08-07T01:24:59.934Z,2.67
2022-08-07T01:27:32.403Z,2.63
2022-08-07T01:30:01.552Z,2.40
2022-08-07T01:32:30.327Z,2.40
2022-08-07T01:35:00.353Z,2.15
2022-08-07T01:37:28.447Z,2.08
2022-08-07T01:40:04.622Z,2.28
2022-08-07T01:42:57.494Z,2.40
2022-08-07T01:45:37.347Z,1.85
2022-08-07T01:48:21.723Z,2.50
2022-08-07T01:51:24.462Z,2.38
2022-08-07T01:54:09.456Z,1.80
2022-08-07T01:56:51.956Z,2.10
2022-08-07T01:59:22.956Z,2.47
2022-08-07T02:02:04.172Z,2.22
2022-08-07T02:04:40.435Z,2.50
2022-08-07T02:07:44.719Z,2.30
2022-08-07T02:10:14.610Z,2.78
2022-08-07T02:12:46.589Z,2.42
2022-08-07T02:15:25.418Z,2.47
2022-08-07T02:17:59.885Z,2.22
2022-08-07T02:20:27.858Z,2.40
2022-08-07T02:22:59.712Z,2.30
2022-08-07T02:26:10.480Z,2.65
2022-08-07T02:28:24.530Z,3.33
2022-08-07T02:30:56.048Z,3.17
2022-08-07T02:33:24.516Z,3.05
2022-08-07T02:36:29.408Z,2.92
2022-08-07T02:38:51.011Z,3.08
2022-08-07T02:41:33.223Z,3.13
2022-08-07T02:44:08.007Z,2.80
2022-08-07T02:46:37.020Z,2.55
2022-08-07T02:49:32.796Z,2.97
2022-08-07T02:52:05.418Z,2.47
2022-08-07T02:54:35.170Z,2.88
2022-08-07T02:57:03.226Z,3.70
2022-08-07T02:59:34.676Z,3.00
2022-08-07T03:02:07.157Z,2.60
2022-08-07T03:04:37.369Z,2.83
2022-08-07T03:07:07.293Z,2.60
2022-08-07T03:09:43.653Z,2.33
2022-08-07T03:12:21.870Z,2.28
2022-08-07T03:14:54.236Z,2.20
2022-08-07T03:17:22.370Z,2.30
2022-08-07T03:19:54.520Z,2.28
2022-08-07T03:22:29.523Z,2.10
2022-08-07T03:25:00.378Z,2.15
2022-08-07T03:27:59.767Z,2.65
2022-08-07T03:30:24.305Z,3.38
2022-08-07T03:32:58.280Z,2.30
2022-08-07T03:35:43.899Z,2.55
2022-08-07T03:38:16.748Z,2.15
2022-08-07T03:40:53.783Z,2.65
2022-08-07T03:43:26.453Z,1.92
2022-08-07T03:45:54.338Z,2.42
2022-08-07T03:48:26.247Z,2.15
2022-08-07T03:50:58.757Z,1.88
2022-08-07T03:54:05.806Z,2.08
2022-08-07T03:56:33.260Z,2.75
2022-08-07T03:59:12.710Z,1.95
2022-08-07T04:01:47.158Z,1.90
2022-08-07T04:04:18.304Z,2.30
2022-08-07T04:06:51.736Z,2.17
2022-08-07T04:09:23.076Z,1.98
2022-08-07T04:12:25.795Z,2.15
2022-08-07T04:14:43.933Z,1.70
2022-08-07T04:18:31.243Z,1.50
2022-08-07T04:20:05.467Z,1.58
2022-08-07T04:22:35.937Z,1.98
2022-08-07T04:25:11.793Z,1.80
2022-08-07T04:27:44.207Z,1.75
2022-08-07T04:30:21.384Z,1.67
2022-08-07T04:33:10.278Z,1.60
2022-08-07T04:35:50.167Z,1.92
2022-08-07T04:38:20.579Z,1.90
2022-08-07T04:40:52.133Z,1.80
2022-08-07T04:44:12.977Z,1.50
2022-08-07T04:47:04.116Z,1.63
2022-08-07T04:49:38.490Z,1.55
2022-08-07T04:52:46.716Z,1.65
2022-08-07T04:58:10.081Z,1.50
2022-08-07T04:58:49.611Z,2.08
2022-08-07T05:01:30.285Z,2.40
2022-08-07T05:04:07.699Z,1.77
2022-08-07T05:06:51.313Z,1.30
2022-08-07T05:09:46.369Z,1.80
2022-08-07T05:12:26.746Z,1.33
2022-08-07T05:15:04.990Z,1.63
2022-08-07T05:17:50.794Z,1.77
2022-08-07T05:20:27.249Z,1.48
2022-08-07T05:23:00.347Z,1.48
2022-08-07T05:25:54.567Z,1.48
2022-08-07T05:28:23.428Z,1.52
2022-08-07T05:30:57.207Z,1.65
2022-08-07T05:33:28.497Z,1.83
2022-08-07T05:35:57.164Z,1.35
2022-08-07T05:39:00.580Z,1.70
2022-08-07T05:41:15.635Z,1.50
2022-08-07T05:44:12.682Z,1.55
2022-08-07T05:46:37.917Z,1.63
2022-08-07T05:49:11.929Z,1.55
2022-08-07T05:51:42.495Z,1.35
2022-08-07T05:54:30.082Z,2.00
2022-08-07T05:56:59.027Z,1.48
2022-08-07T05:59:27.987Z,2.08
2022-08-07T06:02:01.651Z,1.10
2022-08-07T06:04:30.768Z,1.60
2022-08-07T06:07:03.798Z,1.40
2022-08-07T06:10:04.208Z,1.33
2022-08-07T06:12:31.858Z,1.20
2022-08-07T06:15:05.727Z,1.60
2022-08-07T06:17:37.690Z,1.52
2022-08-07T06:20:12.800Z,1.83
2022-08-07T06:23:02.283Z,1.48
2022-08-07T06:25:54.298Z,1.70
2022-08-07T06:28:27.301Z,1.58
2022-08-07T06:30:58.022Z,1.88
2022-08-07T06:33:29.602Z,1.75
2022-08-07T06:36:06.636Z,1.17
2022-08-07T06:38:58.617Z,1.63
2022-08-07T06:42:01.494Z,1.55
2022-08-07T06:44:43.858Z,1.30
2022-08-07T06:47:12.400Z,1.27
2022-08-07T06:49:52.519Z,1.50
2022-08-07T06:52:31.325Z,2.00
2022-08-07T06:55:31.625Z,2.40
2022-08-07T06:57:57.075Z,1.60
2022-08-07T07:00:28.260Z,1.98
2022-08-07T07:02:57.536Z,1.33
2022-08-07T07:06:04.860Z,1.55
2022-08-07T07:08:18.508Z,1.63
2022-08-07T07:10:56.388Z,1.92
2022-08-07T07:13:56.413Z,1.70
2022-08-07T07:16:30.009Z,1.27
2022-08-07T07:19:11.543Z,1.52
2022-08-07T07:22:04.569Z,1.42
2022-08-07T07:24:38.636Z,1.60
2022-08-07T07:27:11.828Z,1.50
2022-08-07T07:29:56.835Z,1.50
2022-08-07T07:32:31.027Z,0.95
2022-08-07T07:35:04.072Z,1.38
2022-08-07T07:37:49.432Z,1.35
2022-08-07T07:40:21.458Z,1.00
2022-08-07T07:42:55.559Z,1.00
2022-08-07T07:46:38.139Z,1.23
2022-08-07T07:48:35.116Z,1.40
2022-08-07T07:51:07.675Z,1.10
2022-08-07T07:53:43.002Z,0.95
2022-08-07T07:56:30.285Z,1.27
2022-08-07T07:59:02.082Z,1.60
2022-08-07T08:02:02.666Z,0.95
2022-08-07T08:04:19.315Z,1.02
2022-08-07T08:06:50.779Z,1.40
2022-08-07T08:09:22.703Z,1.15
2022-08-07T08:12:02.355Z,1.33
2022-08-07T08:14:36.379Z,1.65
2022-08-07T08:17:56.230Z,1.13
2022-08-07T08:20:17.494Z,1.30
2022-08-07T08:23:06.407Z,1.88
2022-08-07T08:25:56.229Z,2.65
2022-08-07T08:28:38.584Z,1.42
2022-08-07T08:31:16.413Z,1.67
2022-08-07T08:33:55.759Z,1.30
2022-08-07T08:36:29.690Z,1.27
2022-08-07T08:39:00.257Z,1.63
2022-08-07T08:41:31.540Z,1.60
2022-08-07T08:44:29.172Z,1.80
2022-08-07T08:47:05.459Z,1.63
2022-08-07T08:50:04.523Z,1.17
2022-08-07T08:52:36.047Z,1.20
2022-08-07T08:55:08.073Z,1.17
2022-08-07T08:57:40.399Z,1.10
2022-08-07T09:00:12.097Z,1.08
2022-08-07T09:02:39.428Z,1.10
2022-08-07T09:05:14.683Z,1.30
2022-08-07T09:07:58.282Z,1.27
2022-08-07T09:10:29.536Z,1.38
2022-08-07T09:12:57.506Z,1.13
2022-08-07T09:16:23.131Z,1.33
2022-08-07T09:18:27.992Z,1.30
2022-08-07T09:21:58.550Z,1.77
2022-08-07T09:24:30.995Z,1.20
2022-08-07T09:27:13.481Z,1.17
2022-08-07T09:30:06.370Z,1.23
2022-08-07T09:32:43.567Z,3.17
2022-08-07T09:36:00.983Z,1.90
2022-08-07T09:38:12.350Z,1.20
2022-08-07T09:40:59.599Z,2.22
2022-08-07T09:44:03.689Z,1.30
2022-08-07T09:47:49.766Z,1.48
2022-08-07T09:50:02.529Z,1.15
2022-08-07T09:55:17.409Z,1.40
2022-08-07T09:58:16.283Z,1.02
2022-08-07T10:01:03.168Z,1.58
2022-08-07T10:04:05.964Z,1.27
2022-08-07T10:06:41.131Z,1.50
2022-08-07T10:10:00.783Z,0.90
2022-08-07T10:12:52.961Z,1.00
2022-08-07T10:15:37.660Z,1.10
2022-08-07T10:18:11.939Z,1.30
2022-08-07T10:20:54.726Z,1.02
2022-08-07T10:24:05.312Z,1.17
2022-08-07T10:26:35.898Z,1.48
2022-08-07T10:29:03.176Z,1.27
2022-08-07T10:31:38.825Z,0.80
2022-08-07T10:34:17.895Z,0.90
2022-08-07T10:37:03.913Z,1.30
2022-08-07T10:39:41.407Z,1.27
2022-08-07T10:43:01.697Z,1.05
2022-08-07T10:45:57.318Z,1.30
2022-08-07T10:48:51.702Z,1.40
2022-08-07T10:51:39.599Z,1.10
2022-08-07T10:54:27.979Z,0.90
2022-08-07T10:57:03.576Z,1.67
2022-08-07T10:59:50.399Z,0.82
2022-08-07T11:02:33.279Z,1.10
2022-08-07T11:05:20.277Z,1.10
2022-08-07T11:08:00.900Z,0.93
2022-08-07T11:10:52.395Z,1.95
2022-08-07T11:14:45.030Z,1.15
2022-08-07T11:17:09.107Z,1.38
2022-08-07T11:19:43.237Z,0.98
2022-08-07T11:22:32.229Z,1.20
2022-08-07T11:25:14.882Z,1.20
2022-08-07T11:28:01.943Z,1.00
2022-08-07T11:30:41.639Z,1.15
2022-08-07T11:33:58.345Z,1.33
2022-08-07T11:36:25.399Z,0.98
2022-08-07T11:39:06.803Z,1.02
2022-08-07T11:42:00.199Z,0.90
2022-08-07T11:44:36.717Z,1.17
2022-08-07T11:47:38.556Z,1.50
2022-08-07T11:50:35.278Z,1.17
2022-08-07T11:53:11.526Z,0.93
2022-08-07T11:56:25.299Z,0.85
2022-08-07T11:58:39.639Z,0.90
2022-08-07T12:01:20.398Z,2.20
2022-08-07T12:03:49.587Z,1.30
2022-08-07T12:06:37.878Z,1.10
2022-08-07T12:09:23.323Z,1.15
2022-08-07T12:12:08.894Z,1.00
2022-08-07T12:14:55.599Z,1.13
2022-08-07T12:17:39.634Z,1.10
2022-08-07T12:20:30.123Z,1.10
2022-08-07T12:23:10.315Z,1.20
2022-08-07T12:26:22.316Z,1.23
2022-08-07T12:28:54.429Z,1.08
2022-08-07T12:31:53.350Z,1.20
2022-08-07T12:34:19.356Z,1.02
2022-08-07T12:36:50.018Z,1.10
2022-08-07T12:39:43.917Z,1.20
2022-08-07T12:42:07.937Z,1.60
2022-08-07T12:44:35.776Z,1.08
2022-08-07T12:47:14.389Z,0.80
2022-08-07T12:50:38.395Z,0.90
2022-08-07T12:52:56.956Z,1.08
2022-08-07T12:55:41.280Z,1.00
2022-08-07T12:58:21.856Z,1.20
2022-08-07T13:01:14.727Z,0.98
2022-08-07T13:03:59.124Z,0.80
2022-08-07T13:06:54.373Z,0.85
2022-08-07T13:10:28.813Z,1.13
2022-08-07T13:12:36.432Z,1.10
2022-08-07T13:15:15.685Z,1.00
2022-08-07T13:18:02.547Z,0.85
2022-08-07T13:20:33.636Z,1.10
2022-08-07T13:23:59.853Z,1.52
2022-08-07T13:26:00.853Z,0.85
2022-08-07T13:28:34.227Z,1.00
2022-08-07T13:31:06.548Z,1.42
2022-08-07T13:34:33.212Z,0.88
2022-08-07T13:36:42.964Z,0.90
2022-08-07T13:39:28.426Z,1.13
2022-08-07T13:42:10.797Z,0.82
2022-08-07T13:44:39.977Z,0.80
2022-08-07T13:47:09.868Z,1.30
2022-08-07T13:52:38.173Z,0.75
2022-08-07T13:55:10.893Z,1.15
2022-08-07T13:58:02.041Z,0.90
2022-08-07T14:00:39.740Z,0.80
2022-08-07T14:03:29.096Z,1.08
2022-08-07T14:06:12.137Z,0.95
2022-08-07T14:08:48.772Z,0.77
2022-08-07T14:11:22.746Z,1.23
2022-08-07T14:13:56.160Z,1.73
2022-08-07T14:16:32.027Z,0.85
2022-08-07T14:22:01.809Z,0.88
2022-08-07T14:24:33.278Z,0.90
2022-08-07T14:27:22.991Z,1.35
2022-08-07T14:32:46.266Z,0.90
2022-08-07T14:35:43.019Z,1.40
2022-08-07T14:38:30.535Z,1.25
2022-08-07T14:41:14.726Z,1.00
2022-08-07T14:43:56.962Z,1.13
2022-08-07T14:49:57.021Z,1.10
2022-08-07T14:52:10.695Z,1.42
2022-08-07T14:57:54.501Z,1.10
2022-08-07T15:00:20.723Z,1.38
2022-08-07T15:03:18.805Z,1.60
2022-08-07T15:05:55.205Z,1.38
2022-08-07T15:08:34.167Z,1.20
2022-08-07T15:11:03.137Z,1.17
2022-08-07T15:13:36.946Z,1.10
2022-08-07T15:16:10.858Z,1.50
2022-08-07T15:18:51.671Z,1.45
2022-08-07T15:25:15.194Z,1.70
2022-08-07T15:27:22.212Z,0.90
2022-08-07T15:33:01.549Z,0.93
2022-08-07T15:35:40.634Z,1.40
2022-08-07T15:38:30.972Z,1.00
2022-08-07T15:41:23.806Z,1.38
2022-08-07T15:44:03.688Z,1.20
2022-08-07T15:49:25.549Z,1.10
2022-08-07T15:52:15.796Z,0.90
2022-08-07T15:54:44.846Z,1.15
2022-08-07T15:57:40.321Z,1.58
2022-08-07T16:00:07.687Z,0.93
2022-08-07T16:02:38.780Z,1.20
2022-08-07T16:05:31.311Z,1.40
2022-08-07T16:08:30.477Z,1.15
2022-08-07T16:11:03.747Z,1.00
2022-08-07T16:13:57.719Z,1.20
2022-08-07T16:16:49.566Z,1.30
2022-08-07T16:19:42.748Z,1.45
2022-08-07T16:22:55.803Z,1.40
2022-08-07T16:25:54.649Z,1.10
2022-08-07T16:30:09.076Z,1.30
2022-08-07T16:31:51.166Z,1.42
2022-08-07T16:34:23.650Z,1.40
2022-08-07T16:37:02.865Z,1.73
2022-08-07T16:40:05.032Z,2.10
2022-08-07T16:42:39.257Z,2.47
2022-08-07T16:45:14.309Z,2.03
2022-08-07T16:47:53.060Z,1.42
2022-08-07T16:51:13.583Z,1.80
2022-08-07T16:53:48.256Z,1.63
2022-08-07T16:56:37.616Z,1.90
2022-08-07T16:59:46.335Z,2.08
2022-08-07T17:02:53.065Z,1.63
2022-08-07T17:06:02.336Z,1.88
2022-08-07T17:08:57.427Z,1.45
2022-08-07T17:12:04.842Z,4.15
2022-08-07T17:14:45.277Z,2.13
2022-08-07T17:17:22.598Z,2.38
2022-08-07T17:20:02.594Z,1.40
2022-08-07T17:22:48.699Z,1.63
2022-08-07T17:25:19.158Z,1.60
2022-08-07T17:27:56.187Z,1.35
2022-08-07T17:30:26.918Z,1.45
2022-08-07T17:33:00.825Z,1.50
2022-08-07T17:35:54.818Z,1.75
2022-08-07T17:38:34.091Z,1.50
2022-08-07T17:42:03.475Z,1.70
2022-08-07T17:44:33.689Z,2.00
2022-08-07T17:47:08.482Z,1.58
2022-08-07T17:49:44.825Z,2.22
2022-08-07T17:52:21.407Z,2.95
2022-08-07T17:55:55.670Z,1.88
2022-08-07T17:58:12.989Z,1.90
2022-08-07T18:00:59.705Z,1.70
2022-08-07T18:04:04.111Z,1.90
2022-08-07T18:06:38.706Z,1.92
2022-08-07T18:09:08.657Z,2.15
2022-08-07T18:12:08.438Z,1.90
2022-08-07T18:14:44.924Z,2.17
2022-08-07T18:17:20.199Z,2.13
2022-08-07T18:21:08.287Z,2.38
2022-08-07T18:23:42.461Z,2.83
2022-08-07T18:26:01.247Z,2.67
2022-08-07T18:28:58.364Z,3.05
2022-08-07T18:31:33.817Z,3.10
2022-08-07T18:34:39.380Z,3.63
2022-08-07T18:37:14.634Z,3.33
2022-08-07T18:40:42.768Z,5.13
2022-08-07T18:43:43.048Z,4.47
2022-08-07T18:46:25.794Z,6.10
2022-08-07T18:50:32.508Z,6.00
2022-08-07T18:52:34.719Z,6.10
2022-08-07T18:55:41.056Z,6.82
2022-08-07T18:57:58.573Z,6.30
2022-08-07T19:00:35.864Z,6.13
2022-08-07T19:03:11.672Z,6.10
2022-08-07T19:06:03.891Z,6.30
2022-08-07T19:08:35.367Z,5.88
2022-08-07T19:11:34.946Z,6.53
2022-08-07T19:14:00.825Z,6.72
2022-08-07T19:17:05.612Z,5.80
2022-08-07T19:19:32.097Z,6.05
2022-08-07T19:22:06.258Z,5.57
2022-08-07T19:24:43.569Z,5.00
2022-08-07T19:28:30.745Z,6.60
2022-08-07T19:31:05.485Z,5.65
2022-08-07T19:32:59.332Z,6.03
2022-08-07T19:37:58.506Z,6.70
2022-08-07T19:40:31.197Z,7.03
2022-08-07T19:43:02.240Z,7.70
2022-08-07T19:46:04.733Z,8.63
2022-08-07T19:48:24.189Z,9.50
2022-08-07T19:50:53.366Z,7.57
2022-08-07T19:54:34.868Z,8.05
2022-08-07T19:57:51.189Z,6.65
2022-08-07T19:58:58.647Z,7.07
2022-08-07T20:01:52.966Z,6.75
2022-08-07T20:04:31.379Z,6.10
2022-08-07T20:10:35.951Z,7.22
2022-08-07T20:12:36.107Z,10.43
2022-08-07T20:15:09.753Z,10.38
2022-08-07T20:18:01.376Z,10.07
2022-08-07T20:20:32.194Z,10.95
2022-08-07T20:23:10.771Z,11.70
2022-08-07T20:25:53.110Z,14.20
2022-08-07T20:28:21.057Z,17.10
2022-08-07T20:30:58.185Z,18.67
2022-08-07T20:33:37.771Z,21.00
2022-08-07T20:36:07.400Z,18.17
2022-08-07T20:38:36.065Z,14.75
2022-08-07T20:41:23.245Z,9.68
2022-08-07T20:43:57.407Z,9.23
2022-08-07T20:46:32.192Z,8.45
2022-08-07T20:49:59.476Z,7.32
2022-08-07T20:51:51.135Z,6.35
2022-08-07T20:54:30.318Z,6.90
2022-08-07T20:57:04.577Z,6.60
2022-08-07T21:00:07.797Z,9.73
2022-08-07T21:02:42.437Z,11.52
2022-08-07T21:05:42.982Z,11.63
2022-08-07T21:08:16.570Z,10.20
2022-08-07T21:10:49.675Z,8.95
2022-08-07T21:13:24.471Z,8.85
2022-08-07T21:16:09.464Z,8.27
2022-08-07T21:18:40.965Z,8.15
2022-08-07T21:21:08.825Z,8.15
2022-08-07T21:23:49.496Z,7.63
2022-08-07T21:26:22.822Z,7.47
2022-08-07T21:28:51.082Z,7.38
2022-08-07T21:31:31.437Z,6.70
2022-08-07T21:34:16.443Z,5.95
2022-08-07T21:37:14.902Z,5.75
2022-08-07T21:39:54.785Z,6.38
2022-08-07T21:42:48.608Z,7.15
2022-08-07T21:46:08.909Z,7.40
2022-08-07T21:48:28.501Z,6.67
2022-08-07T21:51:19.895Z,6.28
2022-08-07T21:53:54.217Z,6.25
2022-08-07T21:56:35.910Z,6.03
2022-08-07T21:59:23.582Z,6.20
2022-08-07T22:02:11.432Z,5.50
2022-08-07T22:04:51.172Z,4.90
2022-08-07T22:07:31.780Z,5.35
2022-08-07T22:10:19.163Z,6.40
2022-08-07T22:12:49.590Z,6.78
2022-08-07T22:16:38.870Z,7.40
2022-08-07T22:18:09.693Z,7.05
2022-08-07T22:20:42.163Z,6.82
2022-08-07T22:23:35.842Z,7.47
2022-08-07T22:26:20.002Z,7.15
2022-08-07T22:29:04.202Z,7.25
2022-08-07T22:32:03.340Z,6.68
2022-08-07T22:34:37.983Z,7.07
2022-08-07T22:37:13.993Z,7.53
2022-08-07T22:39:59.629Z,6.85
2022-08-07T22:42:34.102Z,6.78
2022-08-07T22:45:04.331Z,6.43
2022-08-07T22:48:04.445Z,6.05
2022-08-07T22:50:51.842Z,5.38
2022-08-07T22:53:26.823Z,6.07
2022-08-07T22:56:16.513Z,6.03
2022-08-07T22:58:44.514Z,5.30
2022-08-07T23:01:49.759Z,5.88
2022-08-07T23:04:30.734Z,4.80
2022-08-07T23:07:25.811Z,5.05
2022-08-07T23:10:37.630Z,4.85
2022-08-07T23:13:08.143Z,4.85
2022-08-07T23:16:05.738Z,4.47
2022-08-07T23:18:43.745Z,4.10
2022-08-07T23:21:21.566Z,4.78
2022-08-07T23:24:29.443Z,4.70
2022-08-07T23:27:08.653Z,4.15
2022-08-07T23:29:43.937Z,4.35
2022-08-07T23:34:35.691Z,4.03
2022-08-07T23:35:37.587Z,4.05
2022-08-07T23:38:36.840Z,3.50
2022-08-07T23:41:22.533Z,4.00
2022-08-07T23:44:00.691Z,4.35
2022-08-07T23:46:43.285Z,4.32
2022-08-07T23:49:16.883Z,4.00
2022-08-07T23:53:16.846Z,4.53
2022-08-07T23:54:44.171Z,4.55
2022-08-07T23:57:27.772Z,5.50
